createdAt,value
2018-08-10T00:01:37.016Z,1.33
2018-08-10T00:06:31.691Z,1.33
2018-08-10T00:11:26.165Z,1.63
2018-08-10T00:16:20.633Z,1.63
2018-08-10T00:21:15.255Z,1.20
2018-08-10T00:26:09.842Z,1.70
2018-08-10T00:31:04.479Z,1.57
2018-08-10T00:35:58.966Z,2.07
2018-08-10T00:40:53.451Z,2.13
2018-08-10T00:45:47.940Z,1.97
2018-08-10T00:50:42.559Z,2.40
2018-08-10T00:55:37.064Z,2.30
2018-08-10T01:00:31.502Z,2.10
2018-08-10T01:05:25.967Z,2.10
2018-08-10T01:10:21.223Z,1.97
2018-08-10T01:15:17.027Z,1.70
2018-08-10T01:20:21.936Z,1.70
2018-08-10T01:25:16.880Z,1.80
2018-08-10T01:30:11.336Z,1.67
2018-08-10T01:35:06.662Z,1.70
2018-08-10T01:40:01.126Z,1.63
2018-08-10T01:44:55.674Z,2.00
2018-08-10T01:49:50.141Z,1.87
2018-08-10T01:54:44.596Z,1.80
2018-08-10T01:59:39.049Z,1.60
2018-08-10T02:04:33.531Z,2.07
2018-08-10T02:09:27.986Z,1.73
2018-08-10T02:14:22.497Z,2.00
2018-08-10T02:19:16.970Z,1.80
2018-08-10T02:24:11.398Z,1.87
2018-08-10T02:29:05.868Z,1.70
2018-08-10T02:34:00.500Z,2.00
2018-08-10T02:38:54.946Z,2.00
2018-08-10T02:43:49.516Z,1.90
2018-08-10T02:48:44.013Z,2.20
2018-08-10T02:53:38.449Z,2.40
2018-08-10T02:58:33.370Z,2.40
2018-08-10T03:04:00.177Z,3.00
2018-08-10T03:08:54.833Z,2.43
2018-08-10T03:13:49.817Z,2.90
2018-08-10T03:18:44.284Z,3.27
2018-08-10T03:23:38.744Z,3.23
2018-08-10T03:28:33.233Z,3.00
2018-08-10T03:33:27.703Z,3.00
2018-08-10T03:38:25.250Z,3.47
2018-08-10T03:43:19.672Z,2.83
2018-08-10T03:48:14.287Z,3.50
2018-08-10T03:53:09.124Z,2.80
2018-08-10T03:58:03.736Z,3.00
2018-08-10T04:02:58.245Z,2.70
2018-08-10T04:07:52.751Z,3.00
2018-08-10T04:12:47.210Z,2.50
2018-08-10T04:17:41.773Z,2.60
2018-08-10T04:22:36.244Z,2.90
2018-08-10T04:27:30.744Z,3.33
2018-08-10T04:32:25.621Z,2.73
2018-08-10T04:37:20.296Z,3.00
2018-08-10T04:42:14.771Z,3.00
2018-08-10T04:47:09.239Z,3.00
2018-08-10T04:52:04.096Z,2.60
2018-08-10T04:56:58.616Z,2.50
2018-08-10T05:01:53.292Z,2.30
2018-08-10T05:06:47.923Z,2.80
2018-08-10T05:11:43.525Z,2.47
2018-08-10T05:16:37.994Z,2.57
2018-08-10T05:21:32.457Z,2.80
2018-08-10T05:26:26.957Z,2.57
2018-08-10T05:31:21.662Z,2.30
2018-08-10T05:36:16.595Z,2.70
2018-08-10T05:41:11.280Z,2.50
2018-08-10T05:46:06.147Z,2.80
2018-08-10T05:51:00.664Z,2.63
2018-08-10T05:55:55.252Z,2.37
2018-08-10T06:00:50.085Z,1.70
2018-08-10T06:05:44.732Z,2.00
2018-08-10T06:10:39.228Z,1.77
2018-08-10T06:15:34.267Z,1.80
2018-08-10T06:20:29.070Z,2.10
2018-08-10T06:25:23.893Z,1.57
2018-08-10T06:30:18.932Z,1.60
2018-08-10T06:35:13.676Z,1.90
2018-08-10T06:40:08.407Z,1.63
2018-08-10T06:45:03.598Z,1.70
2018-08-10T06:49:58.522Z,1.60
2018-08-10T06:54:53.348Z,1.70
2018-08-10T06:59:48.316Z,1.70
2018-08-10T07:04:43.686Z,2.00
2018-08-10T07:09:38.454Z,2.07
2018-08-10T07:14:33.270Z,2.10
2018-08-10T07:19:28.142Z,2.10
2018-08-10T07:24:22.898Z,1.80
2018-08-10T07:29:17.866Z,2.07
2018-08-10T07:34:12.610Z,1.60
2018-08-10T07:39:10.911Z,1.50
2018-08-10T07:44:05.896Z,1.80
2018-08-10T07:49:00.784Z,1.70
2018-08-10T07:53:55.710Z,1.80
2018-08-10T07:58:50.470Z,1.60
2018-08-10T08:03:45.187Z,1.60
2018-08-10T08:08:40.459Z,2.00
2018-08-10T08:13:35.448Z,1.87
2018-08-10T08:18:30.237Z,1.63
2018-08-10T08:23:25.150Z,1.90
2018-08-10T08:28:24.279Z,1.70
2018-08-10T08:33:19.902Z,1.70
2018-08-10T08:39:33.627Z,2.00
2018-08-10T08:45:44.094Z,1.70
2018-08-10T08:50:41.176Z,2.03
2018-08-10T08:55:40.227Z,1.70
2018-08-10T09:00:35.173Z,1.50
2018-08-10T09:05:30.470Z,1.47
2018-08-10T09:10:25.233Z,1.20
2018-08-10T09:15:21.326Z,1.57
2018-08-10T09:20:16.074Z,2.17
2018-08-10T09:25:15.160Z,1.53
2018-08-10T09:30:13.322Z,1.33
2018-08-10T09:35:09.869Z,1.40
2018-08-10T09:40:08.858Z,1.50
2018-08-10T09:45:03.779Z,1.40
2018-08-10T09:49:58.490Z,1.37
2018-08-10T09:55:32.090Z,1.60
2018-08-10T10:00:32.132Z,1.60
2018-08-10T10:05:27.196Z,1.63
2018-08-10T10:10:22.564Z,1.50
2018-08-10T10:15:17.747Z,1.50
2018-08-10T10:20:12.495Z,1.70
2018-08-10T10:25:07.263Z,1.57
2018-08-10T10:30:02.275Z,1.53
2018-08-10T10:34:57.000Z,1.37
2018-08-10T10:39:52.266Z,1.70
2018-08-10T10:44:47.018Z,1.47
2018-08-10T10:49:41.753Z,1.50
2018-08-10T10:54:37.178Z,1.60
2018-08-10T10:59:32.028Z,1.60
2018-08-10T11:04:26.671Z,1.37
2018-08-10T11:09:21.474Z,1.60
2018-08-10T11:14:16.326Z,1.60
2018-08-10T11:19:10.898Z,1.33
2018-08-10T11:24:05.549Z,1.30
2018-08-10T11:29:00.158Z,1.40
2018-08-10T11:33:54.732Z,1.37
2018-08-10T11:38:49.464Z,1.60
2018-08-10T11:43:43.932Z,1.33
2018-08-10T11:48:38.704Z,1.13
2018-08-10T11:53:33.513Z,1.17
2018-08-10T11:58:28.366Z,1.10
2018-08-10T12:03:23.270Z,1.13
2018-08-10T12:08:18.048Z,2.00
2018-08-10T12:13:12.788Z,1.23
2018-08-10T12:18:07.595Z,1.03
2018-08-10T12:23:02.329Z,1.20
2018-08-10T12:27:57.325Z,1.40
2018-08-10T12:32:52.135Z,1.30
2018-08-10T12:37:46.617Z,1.30
2018-08-10T12:42:41.518Z,1.20
2018-08-10T12:47:37.433Z,1.30
2018-08-10T12:52:32.459Z,1.40
2018-08-10T12:57:27.224Z,2.40
2018-08-10T13:02:21.957Z,0.87
2018-08-10T13:07:16.772Z,1.00
2018-08-10T13:12:11.368Z,1.27
2018-08-10T13:17:05.873Z,1.03
2018-08-10T13:22:00.391Z,1.07
2018-08-10T13:26:54.855Z,0.90
2018-08-10T13:31:50.024Z,1.23
2018-08-10T13:36:44.503Z,1.30
2018-08-10T13:41:39.754Z,1.10
2018-08-10T13:46:34.951Z,1.10
2018-08-10T13:51:30.036Z,1.30
2018-08-10T13:56:25.523Z,1.17
2018-08-10T14:01:20.278Z,1.17
2018-08-10T14:06:15.869Z,0.78
2018-08-10T14:11:10.726Z,1.33
2018-08-10T14:16:05.529Z,1.10
2018-08-10T14:21:00.045Z,1.30
2018-08-10T14:25:55.094Z,1.13
2018-08-10T14:30:49.538Z,1.20
2018-08-10T14:35:44.921Z,0.97
2018-08-10T14:40:39.684Z,1.43
2018-08-10T14:45:34.170Z,1.00
2018-08-10T14:50:28.692Z,1.10
2018-08-10T14:55:23.764Z,1.10
2018-08-10T15:00:20.590Z,1.20
2018-08-10T15:05:15.096Z,1.10
2018-08-10T15:10:12.420Z,1.00
2018-08-10T15:15:09.280Z,1.10
2018-08-10T15:20:04.090Z,1.20
2018-08-10T15:24:58.615Z,0.93
2018-08-10T15:29:53.548Z,1.20
2018-08-10T15:34:48.061Z,1.27
2018-08-10T15:39:42.718Z,1.30
2018-08-10T15:44:37.205Z,1.20
2018-08-10T15:49:31.668Z,1.03
2018-08-10T15:54:26.317Z,1.00
2018-08-10T15:59:20.745Z,1.10
2018-08-10T16:04:15.222Z,0.90
2018-08-10T16:09:12.072Z,1.20
2018-08-10T16:14:06.852Z,1.33
2018-08-10T16:19:01.532Z,1.20
2018-08-10T16:23:56.085Z,1.00
2018-08-10T16:28:50.784Z,1.10
2018-08-10T16:33:45.588Z,1.17
2018-08-10T16:38:40.553Z,0.80
2018-08-10T16:43:35.289Z,1.30
2018-08-10T16:48:29.917Z,1.30
2018-08-10T16:53:24.445Z,1.20
2018-08-10T16:58:19.134Z,1.80
2018-08-10T17:03:13.600Z,1.40
2018-08-10T17:08:08.113Z,1.13
2018-08-10T17:13:02.642Z,0.90
2018-08-10T17:17:57.386Z,1.10
2018-08-10T17:22:51.968Z,2.10
2018-08-10T17:27:46.548Z,1.13
2018-08-10T17:32:41.130Z,1.50
2018-08-10T17:37:35.687Z,1.63
2018-08-10T17:42:30.200Z,1.60
2018-08-10T17:47:24.955Z,2.20
2018-08-10T17:52:19.671Z,1.57
2018-08-10T17:57:14.234Z,1.47
2018-08-10T18:02:09.786Z,1.20
2018-08-10T18:07:04.355Z,1.23
2018-08-10T18:12:00.205Z,1.10
2018-08-10T18:16:54.714Z,1.60
2018-08-10T18:21:49.212Z,1.40
2018-08-10T18:26:43.694Z,1.80
2018-08-10T18:31:38.537Z,1.73
2018-08-10T18:36:33.304Z,2.10
2018-08-10T18:41:27.792Z,4.07
2018-08-10T18:46:22.352Z,1.67
2018-08-10T18:51:16.864Z,2.17
2018-08-10T18:56:11.550Z,1.53
2018-08-10T19:01:06.458Z,1.37
2018-08-10T19:06:01.216Z,1.53
2018-08-10T19:10:55.919Z,1.40
2018-08-10T19:15:50.497Z,1.67
2018-08-10T19:20:44.950Z,1.50
2018-08-10T19:25:39.432Z,2.73
2018-08-10T19:30:34.281Z,1.67
2018-08-10T19:35:29.136Z,1.80
2018-08-10T19:40:23.706Z,2.80
2018-08-10T19:45:18.514Z,1.53
2018-08-10T19:50:14.900Z,1.40
2018-08-10T19:55:12.196Z,1.90
2018-08-10T20:00:08.109Z,1.87
2018-08-10T20:05:02.882Z,1.40
2018-08-10T20:09:57.532Z,1.50
2018-08-10T20:14:52.244Z,1.70
2018-08-10T20:19:46.829Z,2.40
2018-08-10T20:24:41.377Z,1.50
2018-08-10T20:29:35.856Z,1.43
2018-08-10T20:34:30.366Z,1.80
2018-08-10T20:39:24.892Z,1.30
2018-08-10T20:44:19.630Z,1.30
2018-08-10T20:49:14.118Z,1.60
2018-08-10T20:54:08.594Z,1.50
2018-08-10T20:59:03.628Z,1.30
2018-08-10T21:03:58.164Z,1.50
2018-08-10T21:08:52.828Z,1.40
2018-08-10T21:13:47.451Z,1.67
2018-08-10T21:18:41.981Z,1.23
2018-08-10T21:23:36.455Z,1.10
2018-08-10T21:28:30.931Z,1.60
2018-08-10T21:33:25.602Z,1.50
2018-08-10T21:38:20.312Z,1.60
2018-08-10T21:43:14.816Z,1.70
2018-08-10T21:48:09.307Z,1.37
2018-08-10T21:53:03.852Z,1.60
2018-08-10T21:57:58.330Z,1.50
2018-08-10T22:02:52.862Z,1.43
2018-08-10T22:07:47.370Z,1.23
2018-08-10T22:12:47.944Z,1.30
2018-08-10T22:17:47.830Z,1.30
2018-08-10T22:22:42.337Z,1.50
2018-08-10T22:27:37.007Z,1.57
2018-08-10T22:32:31.465Z,1.17
2018-08-10T22:37:26.103Z,1.73
2018-08-10T22:42:21.140Z,1.40
2018-08-10T22:47:15.766Z,1.50
2018-08-10T22:52:10.254Z,1.40
2018-08-10T22:57:04.744Z,1.23
2018-08-10T23:01:59.266Z,1.53
2018-08-10T23:06:53.973Z,1.30
2018-08-10T23:11:48.562Z,1.20
2018-08-10T23:16:43.096Z,1.40
2018-08-10T23:21:37.575Z,1.43
2018-08-10T23:26:32.099Z,1.53
2018-08-10T23:31:26.588Z,1.50
2018-08-10T23:36:21.136Z,1.73
2018-08-10T23:41:15.707Z,1.47
2018-08-10T23:46:10.363Z,1.23
2018-08-10T23:51:05.071Z,1.50
2018-08-10T23:55:59.633Z,1.50
